sensor_id;sensor_type;location;lat;lon;timestamp;P1;durP1;ratioP1;P2;durP2;ratioP2
14688;SDS011;7432;48.728;9.154;2023-03-22T00:02:03;7.10;;;5.80;;
14688;SDS011;7432;48.728;9.154;2023-03-22T00:04:30;6.83;;;6.23;;
14688;SDS011;7432;48.728;9.154;2023-03-22T00:06:56;7.23;;;6.53;;
14688;SDS011;7432;48.728;9.154;2023-03-22T00:09:23;6.73;;;6.13;;
14688;SDS011;7432;48.728;9.154;2023-03-22T00:11:51;7.40;;;6.60;;
14688;SDS011;7432;48.728;9.154;2023-03-22T00:14:17;6.53;;;5.87;;
14688;SDS011;7432;48.728;9.154;2023-03-22T00:16:44;7.03;;;6.37;;
14688;SDS011;7432;48.728;9.154;2023-03-22T00:19:13;6.60;;;5.83;;
14688;SDS011;7432;48.728;9.154;2023-03-22T00:21:39;6.67;;;6.13;;
14688;SDS011;7432;48.728;9.154;2023-03-22T00:24:06;6.63;;;5.93;;
14688;SDS011;7432;48.728;9.154;2023-03-22T00:26:33;6.43;;;5.80;;
14688;SDS011;7432;48.728;9.154;2023-03-22T00:29:01;6.93;;;6.33;;
14688;SDS011;7432;48.728;9.154;2023-03-22T00:31:27;7.10;;;6.40;;
14688;SDS011;7432;48.728;9.154;2023-03-22T00:33:53;5.80;;;5.23;;
14688;SDS011;7432;48.728;9.154;2023-03-22T00:36:20;6.53;;;5.93;;
14688;SDS011;7432;48.728;9.154;2023-03-22T00:38:46;7.37;;;6.67;;
14688;SDS011;7432;48.728;9.154;2023-03-22T00:41:13;7.13;;;5.57;;
14688;SDS011;7432;48.728;9.154;2023-03-22T00:43:42;6.70;;;6.10;;
14688;SDS011;7432;48.728;9.154;2023-03-22T00:46:10;6.57;;;5.97;;
14688;SDS011;7432;48.728;9.154;2023-03-22T00:48:37;7.87;;;6.10;;
14688;SDS011;7432;48.728;9.154;2023-03-22T00:51:04;7.50;;;5.90;;
14688;SDS011;7432;48.728;9.154;2023-03-22T00:53:31;8.50;;;5.57;;
14688;SDS011;7432;48.728;9.154;2023-03-22T00:55:59;8.23;;;6.03;;
14688;SDS011;7432;48.728;9.154;2023-03-22T00:58:25;9.43;;;6.63;;
14688;SDS011;7432;48.728;9.154;2023-03-22T01:00:52;6.43;;;5.90;;
14688;SDS011;7432;48.728;9.154;2023-03-22T01:03:20;6.80;;;6.20;;
14688;SDS011;7432;48.728;9.154;2023-03-22T01:05:46;8.43;;;6.20;;
14688;SDS011;7432;48.728;9.154;2023-03-22T01:08:14;7.00;;;6.30;;
14688;SDS011;7432;48.728;9.154;2023-03-22T01:10:41;5.93;;;5.43;;
14688;SDS011;7432;48.728;9.154;2023-03-22T01:13:08;6.97;;;6.27;;
14688;SDS011;7432;48.728;9.154;2023-03-22T01:15:36;6.93;;;6.30;;
14688;SDS011;7432;48.728;9.154;2023-03-22T01:18:03;7.60;;;6.90;;
14688;SDS011;7432;48.728;9.154;2023-03-22T01:20:31;7.63;;;6.10;;
14688;SDS011;7432;48.728;9.154;2023-03-22T01:22:57;7.87;;;6.83;;
14688;SDS011;7432;48.728;9.154;2023-03-22T01:25:24;6.87;;;6.27;;
14688;SDS011;7432;48.728;9.154;2023-03-22T01:27:51;6.47;;;5.97;;
14688;SDS011;7432;48.728;9.154;2023-03-22T01:30:17;6.80;;;6.23;;
14688;SDS011;7432;48.728;9.154;2023-03-22T01:32:44;7.53;;;6.77;;
14688;SDS011;7432;48.728;9.154;2023-03-22T01:35:10;8.17;;;7.13;;
14688;SDS011;7432;48.728;9.154;2023-03-22T01:37:38;7.87;;;7.07;;
14688;SDS011;7432;48.728;9.154;2023-03-22T01:40:05;8.37;;;6.73;;
14688;SDS011;7432;48.728;9.154;2023-03-22T01:42:32;6.70;;;6.00;;
14688;SDS011;7432;48.728;9.154;2023-03-22T01:45:21;7.10;;;6.50;;
14688;SDS011;7432;48.728;9.154;2023-03-22T01:50:59;7.07;;;6.47;;
14688;SDS011;7432;48.728;9.154;2023-03-22T01:53:31;6.90;;;6.30;;
14688;SDS011;7432;48.728;9.154;2023-03-22T01:56:00;6.83;;;6.13;;
14688;SDS011;7432;48.728;9.154;2023-03-22T01:58:28;6.13;;;5.63;;
14688;SDS011;7432;48.728;9.154;2023-03-22T02:00:55;6.33;;;5.83;;
14688;SDS011;7432;48.728;9.154;2023-03-22T02:03:24;6.60;;;6.00;;
14688;SDS011;7432;48.728;9.154;2023-03-22T02:05:57;6.23;;;5.63;;
14688;SDS011;7432;48.728;9.154;2023-03-22T02:08:23;6.23;;;5.50;;
14688;SDS011;7432;48.728;9.154;2023-03-22T02:10:51;6.83;;;6.23;;
14688;SDS011;7432;48.728;9.154;2023-03-22T02:13:31;5.87;;;5.37;;
14688;SDS011;7432;48.728;9.154;2023-03-22T02:16:14;5.70;;;5.20;;
14688;SDS011;7432;48.728;9.154;2023-03-22T02:18:53;5.60;;;5.07;;
14688;SDS011;7432;48.728;9.154;2023-03-22T02:21:36;5.27;;;4.87;;
14688;SDS011;7432;48.728;9.154;2023-03-22T02:27:35;5.80;;;5.27;;
14688;SDS011;7432;48.728;9.154;2023-03-22T02:30:22;5.70;;;5.20;;
14688;SDS011;7432;48.728;9.154;2023-03-22T02:33:18;5.40;;;5.00;;
14688;SDS011;7432;48.728;9.154;2023-03-22T02:38:59;5.57;;;5.17;;
14688;SDS011;7432;48.728;9.154;2023-03-22T02:41:54;5.90;;;5.40;;
14688;SDS011;7432;48.728;9.154;2023-03-22T02:44:40;5.67;;;5.17;;
14688;SDS011;7432;48.728;9.154;2023-03-22T02:47:12;6.13;;;5.63;;
14688;SDS011;7432;48.728;9.154;2023-03-22T02:49:48;5.23;;;4.83;;
14688;SDS011;7432;48.728;9.154;2023-03-22T02:52:24;5.83;;;5.33;;
14688;SDS011;7432;48.728;9.154;2023-03-22T02:55:01;5.93;;;5.43;;
14688;SDS011;7432;48.728;9.154;2023-03-22T02:57:35;5.43;;;4.93;;
14688;SDS011;7432;48.728;9.154;2023-03-22T03:00:07;5.37;;;4.97;;
14688;SDS011;7432;48.728;9.154;2023-03-22T03:02:36;6.37;;;5.30;;
14688;SDS011;7432;48.728;9.154;2023-03-22T03:05:05;5.60;;;5.20;;
14688;SDS011;7432;48.728;9.154;2023-03-22T03:07:33;5.27;;;4.87;;
14688;SDS011;7432;48.728;9.154;2023-03-22T03:10:01;5.83;;;5.33;;
14688;SDS011;7432;48.728;9.154;2023-03-22T03:12:29;5.50;;;5.10;;
14688;SDS011;7432;48.728;9.154;2023-03-22T03:14:55;5.90;;;5.40;;
14688;SDS011;7432;48.728;9.154;2023-03-22T03:17:24;5.57;;;5.17;;
14688;SDS011;7432;48.728;9.154;2023-03-22T03:20:05;5.93;;;5.33;;
14688;SDS011;7432;48.728;9.154;2023-03-22T03:22:48;5.83;;;5.03;;
14688;SDS011;7432;48.728;9.154;2023-03-22T03:25:27;5.63;;;5.17;;
14688;SDS011;7432;48.728;9.154;2023-03-22T03:28:03;6.13;;;5.60;;
14688;SDS011;7432;48.728;9.154;2023-03-22T03:30:35;6.33;;;5.43;;
14688;SDS011;7432;48.728;9.154;2023-03-22T03:33:09;5.63;;;5.20;;
14688;SDS011;7432;48.728;9.154;2023-03-22T03:35:43;5.77;;;5.27;;
14688;SDS011;7432;48.728;9.154;2023-03-22T03:38:15;6.50;;;6.00;;
14688;SDS011;7432;48.728;9.154;2023-03-22T03:40:46;5.90;;;5.47;;
14688;SDS011;7432;48.728;9.154;2023-03-22T03:43:15;6.23;;;5.57;;
14688;SDS011;7432;48.728;9.154;2023-03-22T03:45:43;6.30;;;5.70;;
14688;SDS011;7432;48.728;9.154;2023-03-22T03:48:12;5.77;;;5.13;;
14688;SDS011;7432;48.728;9.154;2023-03-22T03:50:43;6.10;;;5.63;;
14688;SDS011;7432;48.728;9.154;2023-03-22T03:53:11;6.27;;;5.67;;
14688;SDS011;7432;48.728;9.154;2023-03-22T03:55:37;6.13;;;5.57;;
14688;SDS011;7432;48.728;9.154;2023-03-22T03:58:05;5.87;;;5.37;;
14688;SDS011;7432;48.728;9.154;2023-03-22T04:00:33;5.53;;;5.07;;
14688;SDS011;7432;48.728;9.154;2023-03-22T04:02:59;5.47;;;4.97;;
14688;SDS011;7432;48.728;9.154;2023-03-22T04:05:25;5.70;;;5.20;;
14688;SDS011;7432;48.728;9.154;2023-03-22T04:07:52;6.03;;;5.63;;
14688;SDS011;7432;48.728;9.154;2023-03-22T04:10:18;5.90;;;5.50;;
14688;SDS011;7432;48.728;9.154;2023-03-22T04:12:45;5.17;;;4.67;;
14688;SDS011;7432;48.728;9.154;2023-03-22T04:15:13;5.57;;;4.70;;
14688;SDS011;7432;48.728;9.154;2023-03-22T04:17:39;7.27;;;5.37;;
14688;SDS011;7432;48.728;9.154;2023-03-22T04:20:07;6.60;;;4.90;;
14688;SDS011;7432;48.728;9.154;2023-03-22T04:22:36;5.13;;;4.73;;
14688;SDS011;7432;48.728;9.154;2023-03-22T04:25:03;5.00;;;4.60;;
14688;SDS011;7432;48.728;9.154;2023-03-22T04:27:30;5.83;;;5.13;;
14688;SDS011;7432;48.728;9.154;2023-03-22T04:29:57;5.50;;;5.10;;
14688;SDS011;7432;48.728;9.154;2023-03-22T04:32:26;5.70;;;5.23;;
14688;SDS011;7432;48.728;9.154;2023-03-22T04:34:52;6.10;;;5.60;;
14688;SDS011;7432;48.728;9.154;2023-03-22T04:37:19;5.33;;;4.93;;
14688;SDS011;7432;48.728;9.154;2023-03-22T04:39:46;5.80;;;5.30;;
14688;SDS011;7432;48.728;9.154;2023-03-22T04:42:12;6.23;;;5.60;;
14688;SDS011;7432;48.728;9.154;2023-03-22T04:44:39;6.23;;;5.73;;
14688;SDS011;7432;48.728;9.154;2023-03-22T04:47:05;5.50;;;5.00;;
14688;SDS011;7432;48.728;9.154;2023-03-22T04:49:33;5.30;;;4.83;;
14688;SDS011;7432;48.728;9.154;2023-03-22T04:51:59;5.17;;;4.67;;
14688;SDS011;7432;48.728;9.154;2023-03-22T04:54:26;5.50;;;5.00;;
14688;SDS011;7432;48.728;9.154;2023-03-22T04:56:52;6.40;;;5.07;;
14688;SDS011;7432;48.728;9.154;2023-03-22T04:59:19;5.27;;;4.70;;
14688;SDS011;7432;48.728;9.154;2023-03-22T05:01:46;5.23;;;4.73;;
14688;SDS011;7432;48.728;9.154;2023-03-22T05:04:12;5.43;;;4.93;;
14688;SDS011;7432;48.728;9.154;2023-03-22T05:06:40;5.67;;;5.17;;
14688;SDS011;7432;48.728;9.154;2023-03-22T05:09:07;5.97;;;5.47;;
14688;SDS011;7432;48.728;9.154;2023-03-22T05:11:34;5.80;;;5.30;;
14688;SDS011;7432;48.728;9.154;2023-03-22T05:14:01;5.43;;;4.93;;
14688;SDS011;7432;48.728;9.154;2023-03-22T05:16:28;6.27;;;5.43;;
14688;SDS011;7432;48.728;9.154;2023-03-22T05:18:54;5.73;;;5.33;;
14688;SDS011;7432;48.728;9.154;2023-03-22T05:21:21;5.47;;;4.97;;
14688;SDS011;7432;48.728;9.154;2023-03-22T05:23:53;7.17;;;5.37;;
14688;SDS011;7432;48.728;9.154;2023-03-22T05:26:21;6.07;;;5.03;;
14688;SDS011;7432;48.728;9.154;2023-03-22T05:28:50;5.73;;;5.03;;
14688;SDS011;7432;48.728;9.154;2023-03-22T05:31:17;5.70;;;5.20;;
14688;SDS011;7432;48.728;9.154;2023-03-22T05:33:45;5.33;;;4.93;;
14688;SDS011;7432;48.728;9.154;2023-03-22T05:36:12;5.50;;;5.00;;
14688;SDS011;7432;48.728;9.154;2023-03-22T05:38:39;5.20;;;4.70;;
14688;SDS011;7432;48.728;9.154;2023-03-22T05:41:07;6.30;;;5.30;;
14688;SDS011;7432;48.728;9.154;2023-03-22T05:43:34;5.30;;;4.90;;
14688;SDS011;7432;48.728;9.154;2023-03-22T05:46:03;6.20;;;5.60;;
14688;SDS011;7432;48.728;9.154;2023-03-22T05:48:30;6.60;;;5.70;;
14688;SDS011;7432;48.728;9.154;2023-03-22T05:50:58;6.13;;;5.30;;
14688;SDS011;7432;48.728;9.154;2023-03-22T05:53:27;6.30;;;5.70;;
14688;SDS011;7432;48.728;9.154;2023-03-22T05:55:53;5.90;;;5.40;;
14688;SDS011;7432;48.728;9.154;2023-03-22T05:58:23;6.23;;;5.73;;
14688;SDS011;7432;48.728;9.154;2023-03-22T06:00:52;6.03;;;5.40;;
14688;SDS011;7432;48.728;9.154;2023-03-22T06:03:19;6.20;;;5.60;;
14688;SDS011;7432;48.728;9.154;2023-03-22T06:05:46;5.80;;;5.30;;
14688;SDS011;7432;48.728;9.154;2023-03-22T06:08:14;6.33;;;5.80;;
14688;SDS011;7432;48.728;9.154;2023-03-22T06:10:41;5.97;;;5.47;;
14688;SDS011;7432;48.728;9.154;2023-03-22T06:13:07;5.20;;;4.80;;
14688;SDS011;7432;48.728;9.154;2023-03-22T06:15:35;5.27;;;4.77;;
14688;SDS011;7432;48.728;9.154;2023-03-22T06:18:01;9.13;;;5.20;;
14688;SDS011;7432;48.728;9.154;2023-03-22T06:20:27;5.40;;;5.00;;
14688;SDS011;7432;48.728;9.154;2023-03-22T06:22:54;5.57;;;4.93;;
14688;SDS011;7432;48.728;9.154;2023-03-22T06:25:20;5.40;;;5.00;;
14688;SDS011;7432;48.728;9.154;2023-03-22T06:27:47;5.87;;;5.27;;
14688;SDS011;7432;48.728;9.154;2023-03-22T06:30:13;6.00;;;5.10;;
14688;SDS011;7432;48.728;9.154;2023-03-22T06:32:41;5.47;;;5.07;;
14688;SDS011;7432;48.728;9.154;2023-03-22T06:35:08;6.53;;;5.90;;
14688;SDS011;7432;48.728;9.154;2023-03-22T06:37:34;5.90;;;5.40;;
14688;SDS011;7432;48.728;9.154;2023-03-22T06:40:01;5.83;;;5.23;;
14688;SDS011;7432;48.728;9.154;2023-03-22T06:42:27;6.20;;;5.47;;
14688;SDS011;7432;48.728;9.154;2023-03-22T06:44:54;5.73;;;5.23;;
14688;SDS011;7432;48.728;9.154;2023-03-22T06:47:21;5.37;;;4.97;;
14688;SDS011;7432;48.728;9.154;2023-03-22T06:49:49;5.27;;;4.80;;
14688;SDS011;7432;48.728;9.154;2023-03-22T06:52:15;6.30;;;5.13;;
14688;SDS011;7432;48.728;9.154;2023-03-22T06:54:41;5.13;;;4.63;;
14688;SDS011;7432;48.728;9.154;2023-03-22T06:57:08;4.77;;;4.37;;
14688;SDS011;7432;48.728;9.154;2023-03-22T06:59:34;5.53;;;4.80;;
14688;SDS011;7432;48.728;9.154;2023-03-22T07:02:01;5.33;;;4.93;;
14688;SDS011;7432;48.728;9.154;2023-03-22T07:04:27;6.27;;;4.80;;
14688;SDS011;7432;48.728;9.154;2023-03-22T07:06:55;5.43;;;5.03;;
14688;SDS011;7432;48.728;9.154;2023-03-22T07:09:21;5.80;;;5.40;;
14688;SDS011;7432;48.728;9.154;2023-03-22T07:11:50;5.70;;;5.10;;
14688;SDS011;7432;48.728;9.154;2023-03-22T07:14:17;5.60;;;5.13;;
14688;SDS011;7432;48.728;9.154;2023-03-22T07:16:43;5.63;;;5.13;;
14688;SDS011;7432;48.728;9.154;2023-03-22T07:19:09;5.33;;;4.93;;
14688;SDS011;7432;48.728;9.154;2023-03-22T07:21:36;5.70;;;5.30;;
14688;SDS011;7432;48.728;9.154;2023-03-22T07:24:04;5.50;;;5.20;;
14688;SDS011;7432;48.728;9.154;2023-03-22T07:26:33;6.13;;;5.50;;
14688;SDS011;7432;48.728;9.154;2023-03-22T07:28:59;5.13;;;4.83;;
14688;SDS011;7432;48.728;9.154;2023-03-22T07:31:25;5.40;;;5.10;;
14688;SDS011;7432;48.728;9.154;2023-03-22T07:33:53;5.20;;;4.90;;
14688;SDS011;7432;48.728;9.154;2023-03-22T07:36:19;6.67;;;5.30;;
14688;SDS011;7432;48.728;9.154;2023-03-22T07:38:48;5.10;;;4.60;;
14688;SDS011;7432;48.728;9.154;2023-03-22T07:41:16;5.40;;;4.90;;
14688;SDS011;7432;48.728;9.154;2023-03-22T07:43:43;6.47;;;5.27;;
14688;SDS011;7432;48.728;9.154;2023-03-22T07:46:09;5.80;;;5.30;;
14688;SDS011;7432;48.728;9.154;2023-03-22T07:48:36;5.43;;;5.13;;
14688;SDS011;7432;48.728;9.154;2023-03-22T07:51:03;5.50;;;5.10;;
14688;SDS011;7432;48.728;9.154;2023-03-22T07:53:30;5.53;;;5.03;;
14688;SDS011;7432;48.728;9.154;2023-03-22T07:55:56;5.47;;;5.18;;
14688;SDS011;7432;48.728;9.154;2023-03-22T07:58:24;18.13;;;6.55;;
14688;SDS011;7432;48.728;9.154;2023-03-22T08:00:50;7.78;;;5.40;;
14688;SDS011;7432;48.728;9.154;2023-03-22T08:03:16;5.50;;;5.15;;
14688;SDS011;7432;48.728;9.154;2023-03-22T08:05:43;5.70;;;5.30;;
14688;SDS011;7432;48.728;9.154;2023-03-22T08:08:09;10.63;;;6.25;;
14688;SDS011;7432;48.728;9.154;2023-03-22T08:10:37;6.10;;;5.60;;
14688;SDS011;7432;48.728;9.154;2023-03-22T08:13:03;6.40;;;5.90;;
14688;SDS011;7432;48.728;9.154;2023-03-22T08:15:31;6.25;;;5.85;;
14688;SDS011;7432;48.728;9.154;2023-03-22T08:17:58;5.80;;;5.50;;
14688;SDS011;7432;48.728;9.154;2023-03-22T08:20:25;6.13;;;5.72;;
14688;SDS011;7432;48.728;9.154;2023-03-22T08:22:52;6.57;;;5.90;;
14688;SDS011;7432;48.728;9.154;2023-03-22T08:25:18;8.13;;;6.30;;
14688;SDS011;7432;48.728;9.154;2023-03-22T08:27:45;6.47;;;5.97;;
14688;SDS011;7432;48.728;9.154;2023-03-22T08:30:12;6.05;;;5.75;;
14688;SDS011;7432;48.728;9.154;2023-03-22T08:32:41;6.45;;;6.03;;
14688;SDS011;7432;48.728;9.154;2023-03-22T08:35:08;6.60;;;6.10;;
14688;SDS011;7432;48.728;9.154;2023-03-22T08:37:35;6.53;;;5.88;;
14688;SDS011;7432;48.728;9.154;2023-03-22T08:40:01;6.45;;;5.85;;
14688;SDS011;7432;48.728;9.154;2023-03-22T08:42:30;6.20;;;5.80;;
14688;SDS011;7432;48.728;9.154;2023-03-22T08:44:57;6.30;;;5.90;;
14688;SDS011;7432;48.728;9.154;2023-03-22T08:47:23;6.50;;;5.90;;
14688;SDS011;7432;48.728;9.154;2023-03-22T08:49:51;6.72;;;6.28;;
14688;SDS011;7432;48.728;9.154;2023-03-22T08:52:17;6.32;;;5.93;;
14688;SDS011;7432;48.728;9.154;2023-03-22T08:54:44;6.25;;;5.90;;
14688;SDS011;7432;48.728;9.154;2023-03-22T08:57:10;6.82;;;6.35;;
14688;SDS011;7432;48.728;9.154;2023-03-22T08:59:38;6.50;;;6.10;;
14688;SDS011;7432;48.728;9.154;2023-03-22T09:02:04;6.40;;;5.95;;
14688;SDS011;7432;48.728;9.154;2023-03-22T09:04:31;6.65;;;6.10;;
14688;SDS011;7432;48.728;9.154;2023-03-22T09:06:58;7.10;;;6.60;;
14688;SDS011;7432;48.728;9.154;2023-03-22T09:09:25;6.60;;;6.20;;
14688;SDS011;7432;48.728;9.154;2023-03-22T09:11:51;6.38;;;6.00;;
14688;SDS011;7432;48.728;9.154;2023-03-22T09:14:18;6.22;;;5.90;;
14688;SDS011;7432;48.728;9.154;2023-03-22T09:16:44;6.55;;;6.15;;
14688;SDS011;7432;48.728;9.154;2023-03-22T09:19:10;6.30;;;5.90;;
14688;SDS011;7432;48.728;9.154;2023-03-22T09:21:37;6.60;;;6.10;;
14688;SDS011;7432;48.728;9.154;2023-03-22T09:24:05;6.00;;;5.70;;
14688;SDS011;7432;48.728;9.154;2023-03-22T09:26:32;6.00;;;5.70;;
14688;SDS011;7432;48.728;9.154;2023-03-22T09:28:59;6.30;;;5.90;;
14688;SDS011;7432;48.728;9.154;2023-03-22T09:31:25;6.00;;;5.60;;
14688;SDS011;7432;48.728;9.154;2023-03-22T09:33:51;6.50;;;6.10;;
14688;SDS011;7432;48.728;9.154;2023-03-22T09:36:18;6.50;;;6.20;;
14688;SDS011;7432;48.728;9.154;2023-03-22T09:38:44;6.47;;;6.03;;
14688;SDS011;7432;48.728;9.154;2023-03-22T09:41:13;6.45;;;6.05;;
14688;SDS011;7432;48.728;9.154;2023-03-22T09:43:44;6.72;;;6.32;;
14688;SDS011;7432;48.728;9.154;2023-03-22T09:46:16;6.97;;;6.57;;
14688;SDS011;7432;48.728;9.154;2023-03-22T09:48:48;7.57;;;7.10;;
14688;SDS011;7432;48.728;9.154;2023-03-22T09:51:20;7.55;;;6.80;;
14688;SDS011;7432;48.728;9.154;2023-03-22T09:53:53;7.38;;;6.88;;
14688;SDS011;7432;48.728;9.154;2023-03-22T09:56:21;7.55;;;6.90;;
14688;SDS011;7432;48.728;9.154;2023-03-22T09:58:51;7.50;;;6.80;;
14688;SDS011;7432;48.728;9.154;2023-03-22T10:01:26;7.10;;;6.70;;
14688;SDS011;7432;48.728;9.154;2023-03-22T10:04:00;7.07;;;6.57;;
14688;SDS011;7432;48.728;9.154;2023-03-22T10:06:43;7.20;;;6.70;;
14688;SDS011;7432;48.728;9.154;2023-03-22T10:09:15;6.72;;;6.32;;
14688;SDS011;7432;48.728;9.154;2023-03-22T10:11:53;7.35;;;6.72;;
14688;SDS011;7432;48.728;9.154;2023-03-22T10:14:29;6.32;;;6.00;;
14688;SDS011;7432;48.728;9.154;2023-03-22T10:17:01;6.85;;;6.35;;
14688;SDS011;7432;48.728;9.154;2023-03-22T10:19:32;6.50;;;6.20;;
14688;SDS011;7432;48.728;9.154;2023-03-22T10:22:01;6.85;;;6.45;;
14688;SDS011;7432;48.728;9.154;2023-03-22T10:24:30;6.43;;;6.03;;
14688;SDS011;7432;48.728;9.154;2023-03-22T10:27:00;6.70;;;6.28;;
14688;SDS011;7432;48.728;9.154;2023-03-22T10:29:28;6.65;;;6.20;;
14688;SDS011;7432;48.728;9.154;2023-03-22T10:32:01;3.08;;;0.80;;
14688;SDS011;7432;48.728;9.154;2023-03-22T10:34:39;0.90;;;0.80;;
14688;SDS011;7432;48.728;9.154;2023-03-22T10:37:05;2.45;;;0.70;;
14688;SDS011;7432;48.728;9.154;2023-03-22T10:39:35;1.35;;;0.60;;
14688;SDS011;7432;48.728;9.154;2023-03-22T10:42:09;1.88;;;0.90;;
14688;SDS011;7432;48.728;9.154;2023-03-22T10:44:42;1.55;;;0.60;;
14688;SDS011;7432;48.728;9.154;2023-03-22T10:47:12;2.72;;;0.90;;
14688;SDS011;7432;48.728;9.154;2023-03-22T10:49:43;2.97;;;0.88;;
14688;SDS011;7432;48.728;9.154;2023-03-22T10:52:17;1.55;;;0.77;;
14688;SDS011;7432;48.728;9.154;2023-03-22T10:54:52;1.77;;;0.65;;
14688;SDS011;7432;48.728;9.154;2023-03-22T10:57:21;1.33;;;0.60;;
14688;SDS011;7432;48.728;9.154;2023-03-22T10:59:48;0.70;;;0.60;;
14688;SDS011;7432;48.728;9.154;2023-03-22T11:02:17;1.08;;;0.60;;
14688;SDS011;7432;48.728;9.154;2023-03-22T11:04:48;1.90;;;0.60;;
14688;SDS011;7432;48.728;9.154;2023-03-22T11:07:25;0.90;;;0.60;;
14688;SDS011;7432;48.728;9.154;2023-03-22T11:12:48;2.83;;;0.70;;
14688;SDS011;7432;48.728;9.154;2023-03-22T11:15:18;2.28;;;0.60;;
14688;SDS011;7432;48.728;9.154;2023-03-22T11:17:48;1.52;;;0.65;;
14688;SDS011;7432;48.728;9.154;2023-03-22T11:20:15;1.37;;;0.70;;
14688;SDS011;7432;48.728;9.154;2023-03-22T11:22:44;2.30;;;0.60;;
14688;SDS011;7432;48.728;9.154;2023-03-22T11:25:12;1.27;;;0.60;;
14688;SDS011;7432;48.728;9.154;2023-03-22T11:27:49;2.80;;;0.50;;
14688;SDS011;7432;48.728;9.154;2023-03-22T11:30:18;1.20;;;0.55;;
14688;SDS011;7432;48.728;9.154;2023-03-22T11:32:47;1.58;;;0.50;;
14688;SDS011;7432;48.728;9.154;2023-03-22T11:35:14;0.65;;;0.40;;
14688;SDS011;7432;48.728;9.154;2023-03-22T11:37:43;1.45;;;0.45;;
14688;SDS011;7432;48.728;9.154;2023-03-22T11:40:13;0.50;;;0.40;;
14688;SDS011;7432;48.728;9.154;2023-03-22T11:42:42;1.13;;;0.55;;
14688;SDS011;7432;48.728;9.154;2023-03-22T11:45:12;0.77;;;0.40;;
14688;SDS011;7432;48.728;9.154;2023-03-22T11:47:41;1.30;;;0.50;;
14688;SDS011;7432;48.728;9.154;2023-03-22T11:50:10;0.70;;;0.50;;
14688;SDS011;7432;48.728;9.154;2023-03-22T11:52:55;1.30;;;0.60;;
14688;SDS011;7432;48.728;9.154;2023-03-22T11:55:22;1.05;;;0.45;;
14688;SDS011;7432;48.728;9.154;2023-03-22T11:57:50;2.53;;;0.60;;
14688;SDS011;7432;48.728;9.154;2023-03-22T12:00:22;1.33;;;0.43;;
14688;SDS011;7432;48.728;9.154;2023-03-22T12:02:52;1.60;;;0.50;;
14688;SDS011;7432;48.728;9.154;2023-03-22T12:05:22;1.88;;;0.40;;
14688;SDS011;7432;48.728;9.154;2023-03-22T12:07:52;1.50;;;0.70;;
14688;SDS011;7432;48.728;9.154;2023-03-22T12:10:24;1.65;;;0.40;;
14688;SDS011;7432;48.728;9.154;2023-03-22T12:12:53;1.50;;;0.60;;
14688;SDS011;7432;48.728;9.154;2023-03-22T12:15:25;1.05;;;0.57;;
14688;SDS011;7432;48.728;9.154;2023-03-22T12:17:55;1.25;;;0.35;;
14688;SDS011;7432;48.728;9.154;2023-03-22T12:20:29;2.38;;;0.60;;
14688;SDS011;7432;48.728;9.154;2023-03-22T12:23:07;1.67;;;0.40;;
14688;SDS011;7432;48.728;9.154;2023-03-22T12:25:39;2.50;;;0.60;;
14688;SDS011;7432;48.728;9.154;2023-03-22T12:28:08;0.45;;;0.32;;
14688;SDS011;7432;48.728;9.154;2023-03-22T12:30:42;0.98;;;0.38;;
14688;SDS011;7432;48.728;9.154;2023-03-22T12:33:14;1.90;;;0.70;;
14688;SDS011;7432;48.728;9.154;2023-03-22T12:35:45;0.80;;;0.50;;
14688;SDS011;7432;48.728;9.154;2023-03-22T12:38:16;0.93;;;0.52;;
14688;SDS011;7432;48.728;9.154;2023-03-22T12:40:48;0.90;;;0.57;;
14688;SDS011;7432;48.728;9.154;2023-03-22T12:43:20;1.08;;;0.50;;
14688;SDS011;7432;48.728;9.154;2023-03-22T12:45:58;1.30;;;0.70;;
14688;SDS011;7432;48.728;9.154;2023-03-22T12:48:30;0.93;;;0.50;;
14688;SDS011;7432;48.728;9.154;2023-03-22T12:51:03;2.15;;;0.60;;
14688;SDS011;7432;48.728;9.154;2023-03-22T12:53:32;0.57;;;0.40;;
14688;SDS011;7432;48.728;9.154;2023-03-22T12:56:06;2.67;;;0.40;;
14688;SDS011;7432;48.728;9.154;2023-03-22T12:58:34;1.90;;;0.73;;
14688;SDS011;7432;48.728;9.154;2023-03-22T13:01:08;0.65;;;0.47;;
14688;SDS011;7432;48.728;9.154;2023-03-22T13:03:45;1.92;;;0.47;;
14688;SDS011;7432;48.728;9.154;2023-03-22T13:06:27;3.63;;;0.60;;
14688;SDS011;7432;48.728;9.154;2023-03-22T13:09:02;0.98;;;0.50;;
14688;SDS011;7432;48.728;9.154;2023-03-22T13:11:39;2.28;;;0.63;;
14688;SDS011;7432;48.728;9.154;2023-03-22T13:14:06;0.55;;;0.40;;
14688;SDS011;7432;48.728;9.154;2023-03-22T13:16:50;2.10;;;0.68;;
14688;SDS011;7432;48.728;9.154;2023-03-22T13:19:33;1.65;;;0.50;;
14688;SDS011;7432;48.728;9.154;2023-03-22T13:24:58;0.60;;;0.40;;
14688;SDS011;7432;48.728;9.154;2023-03-22T13:27:33;2.08;;;0.57;;
14688;SDS011;7432;48.728;9.154;2023-03-22T13:30:04;2.47;;;0.50;;
14688;SDS011;7432;48.728;9.154;2023-03-22T13:32:41;2.07;;;0.57;;
14688;SDS011;7432;48.728;9.154;2023-03-22T13:35:18;1.13;;;0.55;;
14688;SDS011;7432;48.728;9.154;2023-03-22T13:37:47;1.17;;;0.65;;
14688;SDS011;7432;48.728;9.154;2023-03-22T13:40:21;2.35;;;0.55;;
14688;SDS011;7432;48.728;9.154;2023-03-22T13:42:53;1.23;;;0.43;;
14688;SDS011;7432;48.728;9.154;2023-03-22T13:45:34;2.20;;;0.80;;
14688;SDS011;7432;48.728;9.154;2023-03-22T13:48:04;2.15;;;0.60;;
14688;SDS011;7432;48.728;9.154;2023-03-22T13:50:35;2.03;;;0.70;;
14688;SDS011;7432;48.728;9.154;2023-03-22T13:53:03;1.45;;;0.60;;
14688;SDS011;7432;48.728;9.154;2023-03-22T13:55:37;1.10;;;0.63;;
14688;SDS011;7432;48.728;9.154;2023-03-22T13:58:08;1.02;;;0.55;;
14688;SDS011;7432;48.728;9.154;2023-03-22T14:00:37;1.90;;;0.50;;
14688;SDS011;7432;48.728;9.154;2023-03-22T14:03:13;1.25;;;0.60;;
14688;SDS011;7432;48.728;9.154;2023-03-22T14:05:43;4.20;;;0.50;;
14688;SDS011;7432;48.728;9.154;2023-03-22T14:08:16;1.95;;;0.50;;
14688;SDS011;7432;48.728;9.154;2023-03-22T14:10:48;1.07;;;0.50;;
14688;SDS011;7432;48.728;9.154;2023-03-22T14:13:18;0.70;;;0.60;;
14688;SDS011;7432;48.728;9.154;2023-03-22T14:15:52;2.10;;;0.50;;
14688;SDS011;7432;48.728;9.154;2023-03-22T14:18:24;1.93;;;0.40;;
14688;SDS011;7432;48.728;9.154;2023-03-22T14:20:54;2.17;;;0.60;;
14688;SDS011;7432;48.728;9.154;2023-03-22T14:23:24;1.00;;;0.50;;
14688;SDS011;7432;48.728;9.154;2023-03-22T14:25:56;1.60;;;0.60;;
14688;SDS011;7432;48.728;9.154;2023-03-22T14:28:31;1.93;;;0.87;;
14688;SDS011;7432;48.728;9.154;2023-03-22T14:30:59;1.07;;;0.60;;
14688;SDS011;7432;48.728;9.154;2023-03-22T14:33:26;1.43;;;0.80;;
14688;SDS011;7432;48.728;9.154;2023-03-22T14:35:55;2.07;;;0.60;;
14688;SDS011;7432;48.728;9.154;2023-03-22T14:38:25;2.03;;;0.60;;
14688;SDS011;7432;48.728;9.154;2023-03-22T14:41:04;2.33;;;0.70;;
14688;SDS011;7432;48.728;9.154;2023-03-22T14:43:32;1.63;;;0.60;;
14688;SDS011;7432;48.728;9.154;2023-03-22T14:46:00;1.33;;;0.70;;
14688;SDS011;7432;48.728;9.154;2023-03-22T14:48:30;1.27;;;0.50;;
14688;SDS011;7432;48.728;9.154;2023-03-22T14:50:59;0.70;;;0.50;;
14688;SDS011;7432;48.728;9.154;2023-03-22T14:53:31;2.23;;;0.60;;
14688;SDS011;7432;48.728;9.154;2023-03-22T14:56:01;1.93;;;0.60;;
14688;SDS011;7432;48.728;9.154;2023-03-22T14:58:31;1.50;;;0.93;;
14688;SDS011;7432;48.728;9.154;2023-03-22T15:01:00;2.10;;;0.50;;
14688;SDS011;7432;48.728;9.154;2023-03-22T15:03:28;2.70;;;0.60;;
14688;SDS011;7432;48.728;9.154;2023-03-22T15:05:58;3.93;;;0.70;;
14688;SDS011;7432;48.728;9.154;2023-03-22T15:08:27;2.35;;;0.65;;
14688;SDS011;7432;48.728;9.154;2023-03-22T15:10:57;1.37;;;0.70;;
14688;SDS011;7432;48.728;9.154;2023-03-22T15:13:27;0.60;;;0.60;;
14688;SDS011;7432;48.728;9.154;2023-03-22T15:15:55;1.90;;;0.50;;
14688;SDS011;7432;48.728;9.154;2023-03-22T15:18:23;1.23;;;0.60;;
14688;SDS011;7432;48.728;9.154;2023-03-22T15:20:53;0.63;;;0.57;;
14688;SDS011;7432;48.728;9.154;2023-03-22T15:23:22;1.50;;;0.80;;
14688;SDS011;7432;48.728;9.154;2023-03-22T15:25:56;1.23;;;0.70;;
14688;SDS011;7432;48.728;9.154;2023-03-22T15:28:25;1.60;;;0.83;;
14688;SDS011;7432;48.728;9.154;2023-03-22T15:30:53;0.80;;;0.60;;